sensor_id;sensor_type;location;lat;lon;timestamp;pressure;altitude;pressure_sealevel;temperature;humidity
44637;BME280;30343;0.000;0.000;2022-08-19T00:01:42;99719.59;;;20.78;65.95
44637;BME280;30343;0.000;0.000;2022-08-19T00:04:34;99727.56;;;20.77;66.07
44637;BME280;30343;0.000;0.000;2022-08-19T00:07:22;99724.94;;;20.77;65.69
44637;BME280;30343;0.000;0.000;2022-08-19T00:10:07;99724.94;;;20.77;65.82
44637;BME280;30343;0.000;0.000;2022-08-19T00:12:51;99724.03;;;20.76;65.82
44637;BME280;30343;0.000;0.000;2022-08-19T00:15:38;99720.56;;;20.74;65.86
44637;BME280;30343;0.000;0.000;2022-08-19T00:18:28;99715.31;;;20.74;65.86
44637;BME280;30343;0.000;0.000;2022-08-19T00:21:13;99714.44;;;20.74;65.83
44637;BME280;30343;0.000;0.000;2022-08-19T00:23:58;99712.72;;;20.73;65.87
44637;BME280;30343;0.000;0.000;2022-08-19T00:26:45;99722.34;;;20.74;65.65
44637;BME280;30343;0.000;0.000;2022-08-19T00:29:29;99720.63;;;20.73;65.83
44637;BME280;30343;0.000;0.000;2022-08-19T00:32:14;99718.84;;;20.73;65.79
44637;BME280;30343;0.000;0.000;2022-08-19T00:34:58;99728.53;;;20.73;65.86
44637;BME280;30343;0.000;0.000;2022-08-19T00:37:44;99714.53;;;20.71;65.90
44637;BME280;30343;0.000;0.000;2022-08-19T00:40:37;99717.22;;;20.69;65.84
44637;BME280;30343;0.000;0.000;2022-08-19T00:43:23;99710.25;;;20.68;65.61
44637;BME280;30343;0.000;0.000;2022-08-19T00:46:09;99712.88;;;20.68;65.92
44637;BME280;30343;0.000;0.000;2022-08-19T00:48:54;99712.06;;;20.66;65.68
44637;BME280;30343;0.000;0.000;2022-08-19T00:51:38;99699.81;;;20.65;65.75
44637;BME280;30343;0.000;0.000;2022-08-19T00:54:22;99695.44;;;20.64;65.69
44637;BME280;30343;0.000;0.000;2022-08-19T00:57:12;99700.72;;;20.64;65.69
44637;BME280;30343;0.000;0.000;2022-08-19T01:00:03;99705.06;;;20.65;65.83
44637;BME280;30343;0.000;0.000;2022-08-19T01:02:52;99702.47;;;20.63;65.94
44637;BME280;30343;0.000;0.000;2022-08-19T01:05:37;99708.66;;;20.62;65.69
44637;BME280;30343;0.000;0.000;2022-08-19T01:08:26;99700.78;;;20.62;65.77
44637;BME280;30343;0.000;0.000;2022-08-19T01:11:11;99706.06;;;20.61;65.95
44637;BME280;30343;0.000;0.000;2022-08-19T01:13:56;99699.94;;;20.60;65.83
44637;BME280;30343;0.000;0.000;2022-08-19T01:16:44;99713.13;;;20.60;65.91
44637;BME280;30343;0.000;0.000;2022-08-19T01:19:35;99709.59;;;20.60;65.90
44637;BME280;30343;0.000;0.000;2022-08-19T01:25:15;99705.22;;;20.60;65.83
44637;BME280;30343;0.000;0.000;2022-08-19T01:27:59;99709.56;;;20.61;65.75
44637;BME280;30343;0.000;0.000;2022-08-19T01:30:46;99712.22;;;20.61;65.86
44637;BME280;30343;0.000;0.000;2022-08-19T01:33:30;99724.50;;;20.61;65.68
44637;BME280;30343;0.000;0.000;2022-08-19T01:36:39;99726.28;;;20.60;65.76
44637;BME280;30343;0.000;0.000;2022-08-19T01:39:25;99721.00;;;20.60;65.71
44637;BME280;30343;0.000;0.000;2022-08-19T01:42:10;99726.31;;;20.59;65.89
44637;BME280;30343;0.000;0.000;2022-08-19T01:44:55;99726.31;;;20.59;65.71
44637;BME280;30343;0.000;0.000;2022-08-19T01:47:39;99725.47;;;20.58;65.72
44637;BME280;30343;0.000;0.000;2022-08-19T01:50:24;99730.72;;;20.58;65.87
44637;BME280;30343;0.000;0.000;2022-08-19T01:53:11;99733.34;;;20.58;65.91
44637;BME280;30343;0.000;0.000;2022-08-19T01:56:03;99725.47;;;20.57;65.93
44637;BME280;30343;0.000;0.000;2022-08-19T01:58:58;99729.91;;;20.56;66.08
44637;BME280;30343;0.000;0.000;2022-08-19T02:01:44;99739.56;;;20.56;65.98
44637;BME280;30343;0.000;0.000;2022-08-19T02:04:28;99736.91;;;20.56;65.91
44637;BME280;30343;0.000;0.000;2022-08-19T02:07:12;99738.72;;;20.55;65.75
44637;BME280;30343;0.000;0.000;2022-08-19T02:09:56;99746.59;;;20.55;65.90
44637;BME280;30343;0.000;0.000;2022-08-19T02:12:41;99751.88;;;20.55;65.92
44637;BME280;30343;0.000;0.000;2022-08-19T02:15:28;99744.88;;;20.54;65.92
44637;BME280;30343;0.000;0.000;2022-08-19T02:18:12;99751.03;;;20.53;65.88
44637;BME280;30343;0.000;0.000;2022-08-19T02:20:57;99759.00;;;20.51;65.79
44637;BME280;30343;0.000;0.000;2022-08-19T02:23:44;99758.19;;;20.49;65.82
44637;BME280;30343;0.000;0.000;2022-08-19T02:26:31;99759.94;;;20.49;65.87
44637;BME280;30343;0.000;0.000;2022-08-19T02:29:15;99763.47;;;20.48;65.75
44637;BME280;30343;0.000;0.000;2022-08-19T02:32:02;99754.72;;;20.47;65.84
44637;BME280;30343;0.000;0.000;2022-08-19T02:34:48;99757.34;;;20.47;65.87
44637;BME280;30343;0.000;0.000;2022-08-19T02:37:38;99756.50;;;20.47;65.78
44637;BME280;30343;0.000;0.000;2022-08-19T02:40:48;99751.28;;;20.45;65.96
44637;BME280;30343;0.000;0.000;2022-08-19T02:43:36;99753.06;;;20.45;66.02
44637;BME280;30343;0.000;0.000;2022-08-19T02:46:23;99752.19;;;20.44;65.62
44637;BME280;30343;0.000;0.000;2022-08-19T02:49:11;99744.34;;;20.43;65.65
44637;BME280;30343;0.000;0.000;2022-08-19T02:51:55;99746.09;;;20.42;65.92
44637;BME280;30343;0.000;0.000;2022-08-19T02:54:39;99751.34;;;20.42;65.60
44637;BME280;30343;0.000;0.000;2022-08-19T02:57:25;99756.69;;;20.41;65.63
44637;BME280;30343;0.000;0.000;2022-08-19T03:00:10;99752.25;;;20.41;65.82
44637;BME280;30343;0.000;0.000;2022-08-19T03:02:57;99747.00;;;20.41;65.93
44637;BME280;30343;0.000;0.000;2022-08-19T03:05:47;99740.88;;;20.41;65.80
44637;BME280;30343;0.000;0.000;2022-08-19T03:08:37;99747.06;;;20.39;65.71
44637;BME280;30343;0.000;0.000;2022-08-19T03:11:25;99747.91;;;20.40;65.86
44637;BME280;30343;0.000;0.000;2022-08-19T03:14:10;99745.28;;;20.40;65.66
44637;BME280;30343;0.000;0.000;2022-08-19T03:16:53;99747.06;;;20.39;65.66
44637;BME280;30343;0.000;0.000;2022-08-19T03:19:41;99742.69;;;20.38;65.85
44637;BME280;30343;0.000;0.000;2022-08-19T03:22:29;99748.84;;;20.39;65.61
44637;BME280;30343;0.000;0.000;2022-08-19T03:25:16;99746.25;;;20.37;65.84
44637;BME280;30343;0.000;0.000;2022-08-19T03:28:03;99760.31;;;20.36;65.80
44637;BME280;30343;0.000;0.000;2022-08-19T03:30:58;99762.09;;;20.36;65.44
44637;BME280;30343;0.000;0.000;2022-08-19T03:33:43;99770.00;;;20.34;65.48
44637;BME280;30343;0.000;0.000;2022-08-19T03:36:27;99766.53;;;20.34;65.57
44637;BME280;30343;0.000;0.000;2022-08-19T03:39:14;99770.91;;;20.33;65.61
44637;BME280;30343;0.000;0.000;2022-08-19T03:42:01;99774.41;;;20.34;65.66
44637;BME280;30343;0.000;0.000;2022-08-19T03:44:46;99766.53;;;20.32;65.34
44637;BME280;30343;0.000;0.000;2022-08-19T03:47:33;99771.81;;;20.32;65.71
44637;BME280;30343;0.000;0.000;2022-08-19T03:50:19;99769.25;;;20.31;65.69
44637;BME280;30343;0.000;0.000;2022-08-19T03:53:11;99769.25;;;20.31;65.69
44637;BME280;30343;0.000;0.000;2022-08-19T03:56:01;99768.41;;;20.29;65.50
44637;BME280;30343;0.000;0.000;2022-08-19T03:58:48;99761.41;;;20.29;65.59
44637;BME280;30343;0.000;0.000;2022-08-19T04:01:35;99761.44;;;20.28;65.60
44637;BME280;30343;0.000;0.000;2022-08-19T04:04:22;99766.69;;;20.28;65.56
44637;BME280;30343;0.000;0.000;2022-08-19T04:07:10;99758.78;;;20.28;65.71
44637;BME280;30343;0.000;0.000;2022-08-19T04:09:57;99764.06;;;20.28;65.61
44637;BME280;30343;0.000;0.000;2022-08-19T04:12:44;99763.22;;;20.27;65.87
44637;BME280;30343;0.000;0.000;2022-08-19T04:15:32;99761.47;;;20.26;65.58
44637;BME280;30343;0.000;0.000;2022-08-19T04:18:23;99755.41;;;20.24;65.55
44637;BME280;30343;0.000;0.000;2022-08-19T04:21:08;99760.66;;;20.24;65.63
44637;BME280;30343;0.000;0.000;2022-08-19T04:23:56;99753.59;;;20.24;65.50
44637;BME280;30343;0.000;0.000;2022-08-19T04:26:51;99755.41;;;20.24;65.50
44637;BME280;30343;0.000;0.000;2022-08-19T04:29:44;99745.78;;;20.23;65.73
44637;BME280;30343;0.000;0.000;2022-08-19T04:32:37;99746.69;;;20.22;65.97
44637;BME280;30343;0.000;0.000;2022-08-19T04:35:26;99746.69;;;20.22;65.69
44637;BME280;30343;0.000;0.000;2022-08-19T04:38:16;99758.94;;;20.23;65.71
44637;BME280;30343;0.000;0.000;2022-08-19T04:41:02;99757.19;;;20.23;65.69
44637;BME280;30343;0.000;0.000;2022-08-19T04:44:06;99763.38;;;20.21;65.59
44637;BME280;30343;0.000;0.000;2022-08-19T04:46:59;99772.16;;;20.20;65.59
44637;BME280;30343;0.000;0.000;2022-08-19T04:49:49;99774.78;;;20.20;65.76
44637;BME280;30343;0.000;0.000;2022-08-19T04:52:33;99772.16;;;20.20;65.72
44637;BME280;30343;0.000;0.000;2022-08-19T04:55:17;99776.53;;;20.21;65.73
44637;BME280;30343;0.000;0.000;2022-08-19T04:58:04;99779.16;;;20.21;65.78
44637;BME280;30343;0.000;0.000;2022-08-19T05:00:55;99787.03;;;20.21;65.58
44637;BME280;30343;0.000;0.000;2022-08-19T05:03:41;99785.31;;;20.20;65.53
44637;BME280;30343;0.000;0.000;2022-08-19T05:06:26;99785.31;;;20.20;65.50
44637;BME280;30343;0.000;0.000;2022-08-19T05:09:16;99789.72;;;20.19;65.66
44637;BME280;30343;0.000;0.000;2022-08-19T05:12:00;99787.13;;;20.18;65.59
44637;BME280;30343;0.000;0.000;2022-08-19T05:14:45;99794.13;;;20.19;65.70
44637;BME280;30343;0.000;0.000;2022-08-19T05:17:33;99776.59;;;20.18;65.69
44637;BME280;30343;0.000;0.000;2022-08-19T05:20:17;99777.56;;;20.15;65.88
44637;BME280;30343;0.000;0.000;2022-08-19T05:23:19;99785.47;;;20.15;65.66
44637;BME280;30343;0.000;0.000;2022-08-19T05:26:07;99787.25;;;20.15;65.57
44637;BME280;30343;0.000;0.000;2022-08-19T05:28:53;99801.28;;;20.14;65.56
44637;BME280;30343;0.000;0.000;2022-08-19T05:31:37;99804.81;;;20.13;65.60
44637;BME280;30343;0.000;0.000;2022-08-19T05:34:23;99800.47;;;20.12;65.65
44637;BME280;30343;0.000;0.000;2022-08-19T05:37:11;99804.84;;;20.11;65.54
44637;BME280;30343;0.000;0.000;2022-08-19T05:39:55;99803.09;;;20.12;65.71
44637;BME280;30343;0.000;0.000;2022-08-19T05:42:39;99802.28;;;20.10;65.60
44637;BME280;30343;0.000;0.000;2022-08-19T05:45:29;99801.41;;;20.09;65.58
44637;BME280;30343;0.000;0.000;2022-08-19T05:48:15;99811.06;;;20.08;65.86
44637;BME280;30343;0.000;0.000;2022-08-19T05:51:05;99818.13;;;20.06;65.82
44637;BME280;30343;0.000;0.000;2022-08-19T05:53:50;99811.19;;;20.04;65.76
44637;BME280;30343;0.000;0.000;2022-08-19T05:56:35;99818.22;;;20.03;65.89
44637;BME280;30343;0.000;0.000;2022-08-19T05:59:22;99812.94;;;20.03;65.84
44637;BME280;30343;0.000;0.000;2022-08-19T06:02:09;99817.44;;;20.00;65.87
44637;BME280;30343;0.000;0.000;2022-08-19T06:04:54;99814.81;;;20.00;65.80
44637;BME280;30343;0.000;0.000;2022-08-19T06:07:39;99812.22;;;19.98;65.90
44637;BME280;30343;0.000;0.000;2022-08-19T06:10:23;99818.41;;;19.96;65.88
44637;BME280;30343;0.000;0.000;2022-08-19T06:13:07;99823.66;;;19.96;66.01
44637;BME280;30343;0.000;0.000;2022-08-19T06:15:51;99825.47;;;19.93;66.10
44637;BME280;30343;0.000;0.000;2022-08-19T06:18:35;99823.72;;;19.94;66.20
44637;BME280;30343;0.000;0.000;2022-08-19T06:21:23;99829.94;;;19.91;65.98
44637;BME280;30343;0.000;0.000;2022-08-19T06:24:09;99829.88;;;19.93;66.16
44637;BME280;30343;0.000;0.000;2022-08-19T06:26:56;99832.56;;;19.91;66.04
44637;BME280;30343;0.000;0.000;2022-08-19T06:29:41;99829.97;;;19.90;66.02
44637;BME280;30343;0.000;0.000;2022-08-19T06:32:25;99833.53;;;19.87;66.19
44637;BME280;30343;0.000;0.000;2022-08-19T06:35:10;99830.84;;;19.89;66.00
44637;BME280;30343;0.000;0.000;2022-08-19T06:37:58;99829.13;;;19.88;66.32
44637;BME280;30343;0.000;0.000;2022-08-19T06:40:45;99832.69;;;19.85;66.42
44637;BME280;30343;0.000;0.000;2022-08-19T06:43:31;99827.50;;;19.82;66.07
44637;BME280;30343;0.000;0.000;2022-08-19T06:46:20;99834.47;;;19.83;66.12
44637;BME280;30343;0.000;0.000;2022-08-19T06:49:05;99844.94;;;19.86;66.35
44637;BME280;30343;0.000;0.000;2022-08-19T06:51:50;99848.44;;;19.87;66.29
44637;BME280;30343;0.000;0.000;2022-08-19T06:54:34;99847.59;;;19.85;66.16
44637;BME280;30343;0.000;0.000;2022-08-19T06:57:21;99851.13;;;19.84;66.18
44637;BME280;30343;0.000;0.000;2022-08-19T07:00:06;99851.94;;;19.86;66.31
44637;BME280;30343;0.000;0.000;2022-08-19T07:03:00;99859.03;;;19.84;66.52
44637;BME280;30343;0.000;0.000;2022-08-19T07:05:44;99858.16;;;19.83;66.56
44637;BME280;30343;0.000;0.000;2022-08-19T07:08:28;99861.66;;;19.84;66.43
44637;BME280;30343;0.000;0.000;2022-08-19T07:11:18;99868.72;;;19.82;66.48
44637;BME280;30343;0.000;0.000;2022-08-19T07:14:02;99853.84;;;19.81;66.55
44637;BME280;30343;0.000;0.000;2022-08-19T07:16:48;99854.75;;;19.78;66.34
44637;BME280;30343;0.000;0.000;2022-08-19T07:19:33;99857.38;;;19.78;66.48
44637;BME280;30343;0.000;0.000;2022-08-19T07:22:18;99851.34;;;19.76;66.65
44637;BME280;30343;0.000;0.000;2022-08-19T07:25:05;99854.88;;;19.75;66.66
44637;BME280;30343;0.000;0.000;2022-08-19T07:27:52;99867.97;;;19.76;66.54
44637;BME280;30343;0.000;0.000;2022-08-19T07:30:40;99874.94;;;19.77;66.50
44637;BME280;30343;0.000;0.000;2022-08-19T07:33:27;99867.06;;;19.77;66.63
44637;BME280;30343;0.000;0.000;2022-08-19T07:36:17;99863.56;;;19.77;66.72
44637;BME280;30343;0.000;0.000;2022-08-19T07:39:13;99871.47;;;19.75;66.67
44637;BME280;30343;0.000;0.000;2022-08-19T07:41:59;99874.13;;;19.75;66.67
44637;BME280;30343;0.000;0.000;2022-08-19T07:44:48;99868.84;;;19.77;66.54
44637;BME280;30343;0.000;0.000;2022-08-19T07:47:35;99873.16;;;19.78;66.71
44637;BME280;30343;0.000;0.000;2022-08-19T07:50:27;99876.72;;;19.77;66.61
44637;BME280;30343;0.000;0.000;2022-08-19T07:53:14;99874.94;;;19.77;66.68
44637;BME280;30343;0.000;0.000;2022-08-19T07:56:04;99867.97;;;19.76;66.92
44637;BME280;30343;0.000;0.000;2022-08-19T07:58:52;99883.72;;;19.76;66.66
44637;BME280;30343;0.000;0.000;2022-08-19T08:01:39;99879.34;;;19.77;66.89
44637;BME280;30343;0.000;0.000;2022-08-19T08:04:28;99877.56;;;19.77;66.65
44637;BME280;30343;0.000;0.000;2022-08-19T08:07:34;99880.25;;;19.76;66.98
44637;BME280;30343;0.000;0.000;2022-08-19T08:10:37;99877.56;;;19.77;66.78
44637;BME280;30343;0.000;0.000;2022-08-19T08:13:27;99881.97;;;19.77;66.73
44637;BME280;30343;0.000;0.000;2022-08-19T08:16:11;99885.41;;;19.79;66.90
44637;BME280;30343;0.000;0.000;2022-08-19T08:18:55;99888.09;;;19.77;66.72
44637;BME280;30343;0.000;0.000;2022-08-19T08:21:41;99886.28;;;19.80;66.96
44637;BME280;30343;0.000;0.000;2022-08-19T08:24:30;99882.75;;;19.81;66.99
44637;BME280;30343;0.000;0.000;2022-08-19T08:27:17;99878.34;;;19.81;67.00
44637;BME280;30343;0.000;0.000;2022-08-19T08:30:03;99884.50;;;19.82;66.84
44637;BME280;30343;0.000;0.000;2022-08-19T08:32:50;99886.25;;;19.81;67.07
44637;BME280;30343;0.000;0.000;2022-08-19T08:35:35;99882.72;;;19.82;66.92
44637;BME280;30343;0.000;0.000;2022-08-19T08:38:19;99889.69;;;19.85;67.17
44637;BME280;30343;0.000;0.000;2022-08-19T08:41:11;99891.38;;;19.86;67.30
44637;BME280;30343;0.000;0.000;2022-08-19T08:44:00;99899.25;;;19.86;67.24
44637;BME280;30343;0.000;0.000;2022-08-19T08:46:48;99904.53;;;19.86;67.29
44637;BME280;30343;0.000;0.000;2022-08-19T08:49:56;99908.94;;;19.85;67.04
44637;BME280;30343;0.000;0.000;2022-08-19T08:52:45;99910.72;;;19.85;67.19
44637;BME280;30343;0.000;0.000;2022-08-19T08:55:30;99911.63;;;19.84;67.25
44637;BME280;30343;0.000;0.000;2022-08-19T08:58:28;99915.03;;;19.86;67.34
44637;BME280;30343;0.000;0.000;2022-08-19T09:01:18;99912.41;;;19.86;67.10
44637;BME280;30343;0.000;0.000;2022-08-19T09:04:07;99910.66;;;19.86;67.32
44637;BME280;30343;0.000;0.000;2022-08-19T09:09:41;99912.44;;;19.87;67.14
44637;BME280;30343;0.000;0.000;2022-08-19T09:12:35;99899.28;;;19.87;67.18
44637;BME280;30343;0.000;0.000;2022-08-19T09:15:30;99898.38;;;19.88;67.23
44637;BME280;30343;0.000;0.000;2022-08-19T09:18:15;99896.59;;;19.89;67.17
44637;BME280;30343;0.000;0.000;2022-08-19T09:21:03;99899.09;;;19.93;67.19
44637;BME280;30343;0.000;0.000;2022-08-19T09:23:46;99906.09;;;19.96;67.01
44637;BME280;30343;0.000;0.000;2022-08-19T09:26:31;99900.81;;;19.96;67.01
44637;BME280;30343;0.000;0.000;2022-08-19T09:29:16;99901.66;;;19.97;67.14
44637;BME280;30343;0.000;0.000;2022-08-19T09:32:00;99896.38;;;19.98;67.08
44637;BME280;30343;0.000;0.000;2022-08-19T09:34:44;99910.38;;;20.00;66.97
44637;BME280;30343;0.000;0.000;2022-08-19T09:37:28;99902.44;;;20.02;67.04
44637;BME280;30343;0.000;0.000;2022-08-19T09:40:17;99903.28;;;20.02;67.09
44637;BME280;30343;0.000;0.000;2022-08-19T09:43:01;99898.91;;;20.01;66.92
44637;BME280;30343;0.000;0.000;2022-08-19T09:45:47;99897.16;;;20.02;67.17
44637;BME280;30343;0.000;0.000;2022-08-19T09:48:32;99899.81;;;20.02;66.96
44637;BME280;30343;0.000;0.000;2022-08-19T09:51:25;99905.88;;;20.04;67.14
44637;BME280;30343;0.000;0.000;2022-08-19T09:54:11;99905.88;;;20.04;67.04
44637;BME280;30343;0.000;0.000;2022-08-19T09:56:58;99902.34;;;20.05;67.05
44637;BME280;30343;0.000;0.000;2022-08-19T09:59:46;99897.94;;;20.05;67.02
44637;BME280;30343;0.000;0.000;2022-08-19T10:02:35;99897.94;;;20.05;66.96
44637;BME280;30343;0.000;0.000;2022-08-19T10:05:19;99900.56;;;20.07;66.93
44637;BME280;30343;0.000;0.000;2022-08-19T10:08:25;99897.94;;;20.07;66.93
44637;BME280;30343;0.000;0.000;2022-08-19T10:11:13;99897.94;;;20.07;66.80
44637;BME280;30343;0.000;0.000;2022-08-19T10:14:06;99894.34;;;20.10;67.03
44637;BME280;30343;0.000;0.000;2022-08-19T10:16:50;99889.94;;;20.10;66.75
44637;BME280;30343;0.000;0.000;2022-08-19T10:19:35;99896.84;;;20.14;66.76
44637;BME280;30343;0.000;0.000;2022-08-19T10:22:23;99884.56;;;20.15;66.92
44637;BME280;30343;0.000;0.000;2022-08-19T10:25:10;99877.47;;;20.17;66.77
44637;BME280;30343;0.000;0.000;2022-08-19T10:28:00;99879.19;;;20.19;66.88
44637;BME280;30343;0.000;0.000;2022-08-19T10:30:45;99875.59;;;20.22;66.60
44637;BME280;30343;0.000;0.000;2022-08-19T10:33:30;99880.78;;;20.25;66.84
44637;BME280;30343;0.000;0.000;2022-08-19T10:36:20;99879.88;;;20.26;66.53
44637;BME280;30343;0.000;0.000;2022-08-19T10:39:09;99876.34;;;20.27;66.61
44637;BME280;30343;0.000;0.000;2022-08-19T10:41:56;99875.38;;;20.30;66.49
44637;BME280;30343;0.000;0.000;2022-08-19T10:44:48;99881.53;;;20.30;66.36
44637;BME280;30343;0.000;0.000;2022-08-19T10:47:38;99877.13;;;20.31;66.35
44637;BME280;30343;0.000;0.000;2022-08-19T10:50:22;99868.38;;;20.30;66.30
44637;BME280;30343;0.000;0.000;2022-08-19T10:53:25;99866.66;;;20.29;66.32
44637;BME280;30343;0.000;0.000;2022-08-19T10:56:15;99869.28;;;20.29;66.34
44637;BME280;30343;0.000;0.000;2022-08-19T10:59:24;99864.88;;;20.30;66.16
44637;BME280;30343;0.000;0.000;2022-08-19T11:02:16;99868.41;;;20.29;66.21
44637;BME280;30343;0.000;0.000;2022-08-19T11:05:00;99869.22;;;20.31;66.22
44637;BME280;30343;0.000;0.000;2022-08-19T11:07:47;99864.84;;;20.31;66.07
44637;BME280;30343;0.000;0.000;2022-08-19T11:10:34;99857.78;;;20.32;66.14
44637;BME280;30343;0.000;0.000;2022-08-19T11:13:19;99855.13;;;20.33;66.01
44637;BME280;30343;0.000;0.000;2022-08-19T11:16:13;99860.34;;;20.35;66.05
44637;BME280;30343;0.000;0.000;2022-08-19T11:18:59;99862.97;;;20.35;65.88
44637;BME280;30343;0.000;0.000;2022-08-19T11:21:45;99858.56;;;20.35;66.12
44637;BME280;30343;0.000;0.000;2022-08-19T11:24:32;99856.81;;;20.36;65.92
44637;BME280;30343;0.000;0.000;2022-08-19T11:27:16;99851.56;;;20.36;65.96
44637;BME280;30343;0.000;0.000;2022-08-19T11:30:00;99861.19;;;20.35;65.99
44637;BME280;30343;0.000;0.000;2022-08-19T11:32:50;99852.47;;;20.35;65.80
44637;BME280;30343;0.000;0.000;2022-08-19T11:35:38;99861.19;;;20.35;66.03
44637;BME280;30343;0.000;0.000;2022-08-19T11:38:25;99849.78;;;20.36;65.94
44637;BME280;30343;0.000;0.000;2022-08-19T11:41:11;99846.28;;;20.36;66.13
44637;BME280;30343;0.000;0.000;2022-08-19T11:43:58;99846.22;;;20.37;66.03
44637;BME280;30343;0.000;0.000;2022-08-19T11:46:51;99851.50;;;20.37;65.83
44637;BME280;30343;0.000;0.000;2022-08-19T11:49:36;99835.69;;;20.39;66.05
44637;BME280;30343;0.000;0.000;2022-08-19T11:52:20;99845.34;;;20.38;65.78
44637;BME280;30343;0.000;0.000;2022-08-19T11:55:04;99847.91;;;20.40;65.83
44637;BME280;30343;0.000;0.000;2022-08-19T11:57:51;99851.41;;;20.41;65.84
44637;BME280;30343;0.000;0.000;2022-08-19T12:00:38;99851.38;;;20.42;65.87
44637;BME280;30343;0.000;0.000;2022-08-19T12:03:23;99849.63;;;20.43;65.93
44637;BME280;30343;0.000;0.000;2022-08-19T12:06:09;99843.47;;;20.42;65.93
44637;BME280;30343;0.000;0.000;2022-08-19T12:08:57;99849.63;;;20.43;65.85
44637;BME280;30343;0.000;0.000;2022-08-19T12:11:44;99846.06;;;20.44;65.71
44637;BME280;30343;0.000;0.000;2022-08-19T12:14:31;99848.66;;;20.45;65.71
44637;BME280;30343;0.000;0.000;2022-08-19T12:17:24;99849.53;;;20.46;65.90
44637;BME280;30343;0.000;0.000;2022-08-19T12:20:11;99836.31;;;20.47;65.66
44637;BME280;30343;0.000;0.000;2022-08-19T12:22:56;99844.97;;;20.51;65.99
44637;BME280;30343;0.000;0.000;2022-08-19T12:25:50;99846.72;;;20.52;65.75
44637;BME280;30343;0.000;0.000;2022-08-19T12:28:35;99837.00;;;20.54;65.89
44637;BME280;30343;0.000;0.000;2022-08-19T12:31:19;99841.41;;;20.53;66.00
44637;BME280;30343;0.000;0.000;2022-08-19T12:34:06;99835.25;;;20.54;65.92
44637;BME280;30343;0.000;0.000;2022-08-19T12:36:57;99834.38;;;20.54;65.95
44637;BME280;30343;0.000;0.000;2022-08-19T12:39:42;99837.81;;;20.56;65.91
44637;BME280;30343;0.000;0.000;2022-08-19T12:42:26;99832.50;;;20.58;65.89
44637;BME280;30343;0.000;0.000;2022-08-19T12:45:11;99836.88;;;20.59;66.01
44637;BME280;30343;0.000;0.000;2022-08-19T12:47:59;99846.50;;;20.60;65.92
44637;BME280;30343;0.000;0.000;2022-08-19T12:50:51;99839.47;;;20.60;65.86
44637;BME280;30343;0.000;0.000;2022-08-19T12:53:41;99832.44;;;20.61;66.03
44637;BME280;30343;0.000;0.000;2022-08-19T12:56:31;99832.41;;;20.62;66.06
44637;BME280;30343;0.000;0.000;2022-08-19T12:59:17;99828.81;;;20.63;65.85
44637;BME280;30343;0.000;0.000;2022-08-19T13:02:11;99828.81;;;20.63;65.76
44637;BME280;30343;0.000;0.000;2022-08-19T13:04:59;99829.66;;;20.65;66.15
44637;BME280;30343;0.000;0.000;2022-08-19T13:07:46;99836.66;;;20.66;65.74
44637;BME280;30343;0.000;0.000;2022-08-19T13:10:32;99822.63;;;20.66;65.86
44637;BME280;30343;0.000;0.000;2022-08-19T13:13:21;99826.13;;;20.66;66.01
44637;BME280;30343;0.000;0.000;2022-08-19T13:16:05;99824.34;;;20.67;65.99
44637;BME280;30343;0.000;0.000;2022-08-19T13:18:50;99821.72;;;20.67;65.79
44637;BME280;30343;0.000;0.000;2022-08-19T13:21:37;99822.56;;;20.67;66.08
44637;BME280;30343;0.000;0.000;2022-08-19T13:24:21;99819.09;;;20.67;66.04
44637;BME280;30343;0.000;0.000;2022-08-19T13:27:05;99831.38;;;20.66;65.99
44637;BME280;30343;0.000;0.000;2022-08-19T13:29:49;99828.72;;;20.68;66.07
44637;BME280;30343;0.000;0.000;2022-08-19T13:32:52;99829.56;;;20.68;66.13
44637;BME280;30343;0.000;0.000;2022-08-19T13:35:58;99828.72;;;20.68;66.07
44637;BME280;30343;0.000;0.000;2022-08-19T13:38:43;99834.00;;;20.68;66.22
44637;BME280;30343;0.000;0.000;2022-08-19T13:41:28;99827.81;;;20.69;66.18
44637;BME280;30343;0.000;0.000;2022-08-19T13:44:13;99830.44;;;20.69;66.15
44637;BME280;30343;0.000;0.000;2022-08-19T13:47:04;99823.41;;;20.69;66.53
44637;BME280;30343;0.000;0.000;2022-08-19T13:49:53;99828.66;;;20.69;66.21
44637;BME280;30343;0.000;0.000;2022-08-19T13:52:41;99828.66;;;20.69;66.11
44637;BME280;30343;0.000;0.000;2022-08-19T13:55:26;99826.94;;;20.68;66.23
44637;BME280;30343;0.000;0.000;2022-08-19T13:58:11;99824.28;;;20.70;66.25
44637;BME280;30343;0.000;0.000;2022-08-19T14:00:55;99811.13;;;20.70;66.19
44637;BME280;30343;0.000;0.000;2022-08-19T14:03:39;99805.84;;;20.70;66.26
44637;BME280;30343;0.000;0.000;2022-08-19T14:06:23;99807.59;;;20.69;66.25
44637;BME280;30343;0.000;0.000;2022-08-19T14:09:09;99810.22;;;20.69;66.18
44637;BME280;30343;0.000;0.000;2022-08-19T14:11:53;99806.69;;;20.71;66.26
44637;BME280;30343;0.000;0.000;2022-08-19T14:14:38;99804.06;;;20.71;66.36
44637;BME280;30343;0.000;0.000;2022-08-19T14:17:23;99799.63;;;20.73;66.16
44637;BME280;30343;0.000;0.000;2022-08-19T14:20:08;99796.91;;;20.74;66.48
44637;BME280;30343;0.000;0.000;2022-08-19T14:22:54;99794.28;;;20.74;66.39
44637;BME280;30343;0.000;0.000;2022-08-19T14:25:39;99801.34;;;20.74;66.46
44637;BME280;30343;0.000;0.000;2022-08-19T14:28:23;99798.72;;;20.74;66.29
44637;BME280;30343;0.000;0.000;2022-08-19T14:31:14;99789.94;;;20.73;65.90
44637;BME280;30343;0.000;0.000;2022-08-19T14:34:04;99786.41;;;20.76;66.42
44637;BME280;30343;0.000;0.000;2022-08-19T14:36:48;99791.59;;;20.77;66.22
44637;BME280;30343;0.000;0.000;2022-08-19T14:39:38;99788.91;;;20.79;66.34
44637;BME280;30343;0.000;0.000;2022-08-19T14:42:25;99800.31;;;20.79;66.32
44637;BME280;30343;0.000;0.000;2022-08-19T14:45:10;99794.16;;;20.80;66.41
44637;BME280;30343;0.000;0.000;2022-08-19T14:48:04;99787.97;;;20.81;66.20
44637;BME280;30343;0.000;0.000;2022-08-19T14:50:51;99789.72;;;20.81;66.12
44637;BME280;30343;0.000;0.000;2022-08-19T14:53:36;99782.72;;;20.81;66.42
44637;BME280;30343;0.000;0.000;2022-08-19T14:56:23;99785.34;;;20.81;66.15
44637;BME280;30343;0.000;0.000;2022-08-19T14:59:17;99786.19;;;20.82;66.33
44637;BME280;30343;0.000;0.000;2022-08-19T15:02:07;99784.44;;;20.82;66.22
44637;BME280;30343;0.000;0.000;2022-08-19T15:04:56;99788.81;;;20.82;66.25